Time;durP1;ratioP1;P1;durP2;ratioP2;P2;SDS_P1;SDS_P2;PMS_P1;PMS_P2;Temp;Humidity;BMP_temperature;BMP_pressure;BME280_temperature;BME280_humidity;BME280_pressure;Samples;Min_cycle;Max_cycle;Signal;HPM_P1;HPM_P2
2022/04/01 00:01:40;;;;;;;5.43;3.27;;;;;;;18.97;53.84;98435.69;5032091;28;20208;-62
2022/04/01 00:04:06;;;;;;;4.93;3.03;;;;;;;18.97;53.92;98432.84;5031879;28;20188;-62
2022/04/01 00:06:31;;;;;;;7.20;3.50;;;;;;;18.96;53.77;98436.16;5031972;28;20929;-62
2022/04/01 00:08:57;;;;;;;5.50;3.20;;;;;;;18.97;53.88;98429.97;5014395;28;20176;-62
2022/04/01 00:11:22;;;;;;;4.70;3.10;;;;;;;18.96;53.89;98425.50;5032049;28;20184;-62
2022/04/01 00:13:47;;;;;;;6.87;3.90;;;;;;;18.98;53.88;98434.50;5031875;28;20223;-63
2022/04/01 00:16:15;;;;;;;5.53;3.00;;;;;;;18.96;53.68;98431.22;5031785;28;20176;-63
2022/04/01 00:18:40;;;;;;;5.50;3.00;;;;;;;18.96;53.49;98431.22;5031814;28;20184;-62
2022/04/01 00:21:06;;;;;;;4.47;2.70;;;;;;;18.97;53.88;98435.69;5013551;28;20466;-62
2022/04/01 00:23:31;;;;;;;7.90;3.47;;;;;;;18.94;53.99;98438.63;5032061;28;20180;-62
2022/04/01 00:25:56;;;;;;;6.87;3.67;;;;;;;18.96;53.78;98442.66;5031768;28;20161;-62
2022/04/01 00:28:22;;;;;;;5.40;3.03;;;;;;;18.93;54.25;98443.53;5031558;28;20172;-62
2022/04/01 00:30:48;;;;;;;5.67;3.10;;;;;;;18.93;53.70;98437.81;5031601;28;20176;-62
2022/04/01 00:33:14;;;;;;;6.73;3.67;;;;;;;18.95;53.77;98443.09;5031271;28;20544;-62
2022/04/01 00:35:40;;;;;;;5.40;3.23;;;;;;;18.99;53.61;98443.84;5031795;28;20617;-62
2022/04/01 00:38:05;;;;;;;6.17;3.53;;;;;;;18.94;53.66;98439.44;5031536;28;20593;-62
2022/04/01 00:40:31;;;;;;;5.50;3.30;;;;;;;18.92;53.98;98432.53;5031539;28;20598;-63
2022/04/01 00:42:56;;;;;;;7.73;3.43;;;;;;;18.96;54.05;98439.00;5031350;28;20180;-62
2022/04/01 00:45:21;;;;;;;4.00;3.10;;;;;;;18.93;53.92;98434.97;5031525;28;20609;-62
2022/04/01 00:47:47;;;;;;;5.57;3.30;;;;;;;18.91;53.92;98437.44;5031140;28;20228;-62
2022/04/01 00:50:12;;;;;;;5.50;2.70;;;;;;;18.92;53.56;98436.19;5030900;28;20185;-62
2022/04/01 00:52:38;;;;;;;4.67;2.97;;;;;;;18.92;53.91;98429.66;5013599;28;20202;-62
2022/04/01 00:55:05;;;;;;;4.73;3.20;;;;;;;18.91;53.86;98433.78;5015896;28;20176;-62
2022/04/01 00:57:31;;;;;;;4.53;3.10;;;;;;;18.90;53.91;98435.81;5034679;28;20230;-62
2022/04/01 00:59:56;;;;;;;4.60;2.80;;;;;;;18.90;53.94;98430.09;5035403;28;20429;-62
2022/04/01 01:02:22;;;;;;;6.07;2.90;;;;;;;18.91;53.73;98434.56;5035653;28;20200;-62
2022/04/01 01:04:47;;;;;;;3.90;2.63;;;;;;;18.90;53.92;98427.22;5035251;28;20168;-62
2022/04/01 01:07:13;;;;;;;5.47;3.50;;;;;;;18.90;53.97;98432.94;5035147;28;20169;-62
2022/04/01 01:09:39;;;;;;;4.20;2.63;;;;;;;18.87;53.69;98428.06;5017595;28;20254;-62
2022/04/01 01:12:06;;;;;;;4.40;2.97;;;;;;;18.88;53.84;98429.72;5035008;28;20693;-62
2022/04/01 01:14:34;;;;;;;3.63;2.73;;;;;;;18.89;53.78;98433.38;5035562;28;20176;-63
2022/04/01 01:17:01;;;;;;;4.83;3.20;;;;;;;18.93;53.71;98434.16;5033305;28;20454;-62
2022/04/01 01:19:27;;;;;;;3.93;3.00;;;;;;;18.90;53.95;98424.38;5035231;28;20451;-62
2022/04/01 01:21:54;;;;;;;5.37;3.30;;;;;;;18.87;53.81;98427.28;5017190;28;20458;-62
2022/04/01 01:24:32;;;;;;;5.30;3.30;;;;;;;18.91;53.93;98431.69;5035121;28;20418;-62
2022/04/01 01:26:57;;;;;;;4.07;2.70;;;;;;;18.87;53.77;98425.22;5034677;28;20482;-62
2022/04/01 01:29:27;;;;;;;4.13;3.03;;;;;;;18.88;53.94;98424.00;5034437;28;20526;-62
2022/04/01 01:31:54;;;;;;;5.20;3.00;;;;;;;18.91;53.74;98428.06;5017220;28;20495;-62
2022/04/01 01:34:20;;;;;;;5.23;2.83;;;;;;;18.89;53.68;98425.63;5035161;28;20947;-62
2022/04/01 01:36:45;;;;;;;4.83;2.60;;;;;;;18.88;53.95;98429.72;5034428;28;20411;-62
2022/04/01 01:39:11;;;;;;;3.90;2.90;;;;;;;18.89;53.80;98421.94;5034661;28;20168;-62
2022/04/01 01:41:36;;;;;;;4.87;3.13;;;;;;;18.87;53.99;98424.44;5034564;28;20197;-62
2022/04/01 01:44:04;;;;;;;4.10;2.60;;;;;;;18.87;53.90;98415.84;5034572;28;20180;-62
2022/04/01 01:46:29;;;;;;;7.30;3.30;;;;;;;18.86;54.01;98419.94;5034264;28;20258;-62
2022/04/01 01:48:55;;;;;;;4.03;2.87;;;;;;;18.88;53.62;98429.72;5034184;28;20418;-62
2022/04/01 01:56:48;;;;;;;3.80;2.53;;;;;;;18.85;54.01;98427.72;5033100;28;20419;-62
2022/04/01 01:59:13;;;;;;;4.07;2.73;;;;;;;18.84;53.91;98423.22;5034338;28;20906;-62
2022/04/01 02:01:39;;;;;;;4.10;2.97;;;;;;;18.84;53.98;98420.38;5034066;28;20204;-62
2022/04/01 02:04:05;;;;;;;4.37;3.10;;;;;;;18.85;53.89;98426.88;5034035;28;20632;-62
2022/04/01 02:06:30;;;;;;;3.80;2.90;;;;;;;18.83;53.91;98418.75;5032919;28;20525;-62
2022/04/01 02:08:56;;;;;;;3.43;2.50;;;;;;;18.85;53.62;98421.16;5034147;28;20173;-63
2022/04/01 02:11:21;;;;;;;3.80;2.73;;;;;;;18.84;53.71;98428.13;5033568;28;20188;-62
2022/04/01 02:13:47;;;;;;;4.50;3.00;;;;;;;18.85;53.73;98418.31;5033571;28;20203;-62
2022/04/01 02:16:14;;;;;;;4.97;2.50;;;;;;;18.84;53.92;98417.50;5033857;28;20172;-62
2022/04/01 02:18:42;;;;;;;4.77;2.77;;;;;;;18.84;54.03;98423.22;5033453;28;20456;-62
2022/04/01 02:21:11;;;;;;;3.90;2.97;;;;;;;18.83;54.08;98421.63;5032515;28;20821;-62
2022/04/01 02:23:40;;;;;;;4.53;2.73;;;;;;;18.80;53.96;98422.47;5033124;28;20427;-62
2022/04/01 02:26:07;;;;;;;4.83;3.20;;;;;;;18.84;53.69;98423.22;5033768;28;20427;-62
2022/04/01 02:28:34;;;;;;;3.83;2.83;;;;;;;18.83;53.92;98418.75;5033978;28;20423;-62
2022/04/01 02:30:59;;;;;;;3.80;2.80;;;;;;;18.82;53.82;98417.13;5033672;28;20403;-62
2022/04/01 02:33:25;;;;;;;3.63;2.50;;;;;;;18.86;53.68;98426.47;5033465;28;20431;-63
2022/04/01 02:35:50;;;;;;;4.50;2.70;;;;;;;18.83;53.60;98427.34;5033842;28;20176;-63
2022/04/01 02:38:16;;;;;;;4.10;2.50;;;;;;;18.82;53.74;98419.97;5033617;28;20202;-63
2022/04/01 02:40:41;;;;;;;4.40;2.53;;;;;;;18.85;53.85;98424.84;5033391;28;20192;-63
2022/04/01 02:43:07;;;;;;;3.50;2.20;;;;;;;18.79;54.07;98429.44;5033546;28;20187;-63
2022/04/01 02:45:32;;;;;;;4.33;2.37;;;;;;;18.84;53.72;98428.13;5033446;28;20196;-63
2022/04/01 02:47:58;;;;;;;3.30;2.47;;;;;;;18.81;53.74;98429.78;5032571;28;20290;-62
2022/04/01 02:50:23;;;;;;;5.07;2.93;;;;;;;18.82;53.72;98430.63;5033348;28;20176;-63
2022/04/01 02:52:49;;;;;;;4.33;2.70;;;;;;;18.83;53.79;98432.22;5015547;28;20168;-63
2022/04/01 02:55:14;;;;;;;3.93;2.33;;;;;;;18.84;53.82;98425.28;5032583;28;20191;-63
2022/04/01 02:57:39;;;;;;;3.10;2.67;;;;;;;18.85;53.69;98426.88;5031754;28;20183;-63
2022/04/01 03:00:09;;;;;;;4.97;3.10;;;;;;;18.82;53.74;98431.41;5033165;28;20199;-63
2022/04/01 03:02:36;;;;;;;5.03;2.77;;;;;;;18.85;53.70;98424.03;5032897;28;20200;-63
2022/04/01 03:05:03;;;;;;;3.60;2.33;;;;;;;18.83;53.89;98435.09;5032962;28;20426;-63
2022/04/01 03:07:28;;;;;;;4.13;2.63;;;;;;;18.85;53.67;98424.03;5033172;28;20530;-63
2022/04/01 03:09:54;;;;;;;4.60;2.80;;;;;;;18.82;53.67;98419.19;5032726;28;20868;-63
2022/04/01 03:12:19;;;;;;;3.30;2.33;;;;;;;18.82;53.80;98431.41;5033186;28;20168;-62
2022/04/01 03:14:45;;;;;;;4.17;2.60;;;;;;;18.82;53.84;98430.63;5032765;28;20662;-62
2022/04/01 03:17:11;;;;;;;4.43;2.83;;;;;;;18.81;53.72;98435.50;5032308;28;20512;-62
2022/04/01 03:19:39;;;;;;;4.10;2.70;;;;;;;18.83;53.76;98426.50;5032588;28;20189;-62
2022/04/01 03:22:04;;;;;;;4.30;2.60;;;;;;;18.85;53.42;98435.47;5032684;28;20277;-62
2022/04/01 03:24:30;;;;;;;3.73;2.80;;;;;;;18.83;53.80;98427.34;5031993;28;20423;-62
2022/04/01 03:26:56;;;;;;;4.30;2.90;;;;;;;18.81;53.70;98432.66;5032571;28;20176;-62
2022/04/01 03:29:22;;;;;;;3.03;2.03;;;;;;;18.81;53.67;98435.50;5032528;28;20477;-62
2022/04/01 03:31:48;;;;;;;6.03;2.50;;;;;;;18.84;53.57;98431.81;5032428;28;20188;-62
2022/04/01 03:34:14;;;;;;;4.40;2.70;;;;;;;18.82;53.75;98439.19;5032447;28;20557;-62
2022/04/01 03:36:39;;;;;;;6.33;2.80;;;;;;;18.79;53.63;98443.72;5032623;28;20419;-62
2022/04/01 03:39:05;;;;;;;3.60;2.33;;;;;;;18.77;53.59;98437.59;5032273;28;20268;-62
2022/04/01 03:41:30;;;;;;;4.27;2.70;;;;;;;18.80;53.62;98439.63;5032139;28;20204;-62
2022/04/01 03:43:56;;;;;;;3.70;2.80;;;;;;;18.80;53.83;98439.63;5014740;28;20183;-62
2022/04/01 03:46:24;;;;;;;3.90;2.63;;;;;;;18.81;53.76;98432.66;5031831;28;20196;-62
2022/04/01 03:48:55;;;;;;;4.20;2.70;;;;;;;18.80;53.65;98436.75;5014825;28;20157;-63
2022/04/01 03:51:24;;;;;;;5.00;2.40;;;;;;;18.78;53.64;98436.38;5032179;28;20415;-63
2022/04/01 03:53:58;;;;;;;6.33;3.17;;;;;;;18.78;53.63;98435.56;5032298;28;20498;-63
2022/04/01 03:56:30;;;;;;;4.00;2.70;;;;;;;18.80;53.88;98447.38;5032165;28;20418;-63
2022/04/01 03:58:59;;;;;;;4.00;2.87;;;;;;;18.80;53.64;98442.47;5032013;28;20465;-63
2022/04/01 04:01:24;;;;;;;3.37;2.50;;;;;;;18.82;53.65;98447.78;5031846;28;20821;-63
2022/04/01 04:03:50;;;;;;;4.73;2.70;;;;;;;18.80;53.66;98441.66;5013268;28;20471;-63
2022/04/01 04:06:16;;;;;;;4.40;3.20;;;;;;;18.79;53.69;98449.44;5031143;28;20176;-63
2022/04/01 04:08:42;;;;;;;5.07;3.27;;;;;;;18.81;53.72;98452.66;5031753;28;20565;-63
2022/04/01 04:11:09;;;;;;;3.80;2.90;;;;;;;18.80;54.23;98448.19;5014340;28;20431;-63
2022/04/01 04:13:36;;;;;;;5.57;3.00;;;;;;;18.80;53.82;98448.19;5031915;28;20243;-63
2022/04/01 04:16:09;;;;;;;3.80;2.73;;;;;;;18.79;53.57;98455.16;5014487;28;20507;-63
2022/04/01 04:19:01;;;;;;;2.83;2.10;;;;;;;18.79;53.62;98449.44;5031084;28;20446;-63
2022/04/01 04:21:28;;;;;;;3.50;2.20;;;;;;;18.81;54.02;98451.88;5003126;28;20465;-63
2022/04/01 04:24:01;;;;;;;5.00;2.93;;;;;;;18.79;53.52;98458.00;5031684;28;21293;-63
2022/04/01 04:26:35;;;;;;;4.30;2.63;;;;;;;18.82;53.74;98460.00;5031439;28;20465;-63
2022/04/01 04:29:12;;;;;;;3.77;2.63;;;;;;;18.80;53.52;98456.78;5029947;28;20836;-62
2022/04/01 04:31:38;;;;;;;4.40;3.07;;;;;;;18.78;53.70;98459.25;5031738;28;20411;-62
2022/04/01 04:34:07;;;;;;;3.77;2.67;;;;;;;18.77;53.66;98457.59;5014168;28;20426;-62
2022/04/01 04:36:39;;;;;;;3.73;2.17;;;;;;;18.78;53.40;98464.97;5031774;28;20439;-62
2022/04/01 04:39:15;;;;;;;3.07;2.40;;;;;;;18.77;53.52;98466.19;5031727;28;20507;-62
2022/04/01 04:41:40;;;;;;;3.60;2.40;;;;;;;18.78;53.66;98464.97;5031201;28;20454;-62
2022/04/01 04:44:06;;;;;;;3.27;2.20;;;;;;;18.80;53.48;98468.22;4997438;28;20415;-62
2022/04/01 04:46:31;;;;;;;4.03;2.43;;;;;;;18.76;53.62;98467.44;5031305;28;20259;-62
2022/04/01 04:48:57;;;;;;;3.43;2.50;;;;;;;18.79;53.48;98465.75;5031613;28;20168;-62
2022/04/01 04:51:24;;;;;;;3.20;2.40;;;;;;;18.80;53.75;98471.06;5031103;28;20179;-62
2022/04/01 04:53:49;;;;;;;3.63;2.53;;;;;;;18.77;53.28;98471.91;5031523;28;20933;-62
2022/04/01 04:56:15;;;;;;;3.10;2.10;;;;;;;18.78;53.40;98482.13;5031390;28;20451;-62
2022/04/01 04:58:43;;;;;;;3.37;2.00;;;;;;;18.78;53.36;98478.44;5031519;28;20173;-63
2022/04/01 05:01:16;;;;;;;3.90;2.50;;;;;;;18.79;53.37;98480.88;5031028;28;20593;-63
2022/04/01 05:04:05;;;;;;;3.90;2.47;;;;;;;18.78;53.38;98482.13;5031077;28;20423;-63
2022/04/01 05:06:36;;;;;;;3.93;2.60;;;;;;;18.78;53.47;98496.41;5031440;28;20418;-63
2022/04/01 05:09:07;;;;;;;4.03;2.50;;;;;;;18.83;53.39;98492.28;4997781;28;20419;-63
2022/04/01 05:11:51;;;;;;;3.73;2.53;;;;;;;18.81;53.47;98498.41;5031113;28;20418;-63
2022/04/01 05:14:49;;;;;;;2.97;2.00;;;;;;;18.79;53.57;98500.91;5031214;28;20936;-63
2022/04/01 05:17:27;;;;;;;3.30;2.63;;;;;;;18.81;53.48;98503.34;4994404;28;20429;-63
2022/04/01 05:20:00;;;;;;;3.17;2.50;;;;;;;18.78;53.57;98501.31;5013907;28;20498;-62
2022/04/01 05:22:36;;;;;;;3.40;2.40;;;;;;;18.77;53.27;98509.06;5031028;28;20486;-62
2022/04/01 05:25:02;;;;;;;3.20;2.37;;;;;;;18.79;53.51;98511.50;5031009;28;20412;-62
2022/04/01 05:27:30;;;;;;;2.90;2.33;;;;;;;18.76;53.34;98510.31;5030831;28;20419;-63
2022/04/01 05:30:16;;;;;;;4.10;2.50;;;;;;;18.77;53.39;98517.66;5030806;28;20177;-63
2022/04/01 05:32:48;;;;;;;3.97;2.47;;;;;;;18.76;53.46;98523.81;5024161;28;20427;-63
2022/04/01 05:35:13;;;;;;;3.10;1.97;;;;;;;18.78;53.42;98518.47;4993721;28;20958;-63
2022/04/01 05:37:38;;;;;;;3.23;2.50;;;;;;;18.76;53.58;98523.81;4994128;28;20416;-63
2022/04/01 05:40:05;;;;;;;3.10;1.93;;;;;;;18.78;53.26;98532.75;5002969;28;20264;-63
2022/04/01 05:42:32;;;;;;;3.43;2.27;;;;;;;18.77;53.54;98534.81;5034636;28;20193;-63
2022/04/01 05:44:57;;;;;;;3.80;2.50;;;;;;;18.78;53.15;98533.59;5034116;28;20861;-63
2022/04/01 05:47:24;;;;;;;3.63;2.63;;;;;;;18.78;53.48;98538.47;5016460;28;20466;-63
2022/04/01 05:49:49;;;;;;;3.47;2.37;;;;;;;18.82;53.13;98539.25;5016961;28;20273;-63
2022/04/01 05:52:15;;;;;;;4.33;2.63;;;;;;;18.78;53.42;98539.31;5016822;28;20952;-63
2022/04/01 05:54:41;;;;;;;3.40;2.60;;;;;;;18.78;53.46;98545.03;5034535;28;20222;-63
2022/04/01 05:57:07;;;;;;;3.20;2.53;;;;;;;18.78;53.45;98550.75;5034392;28;20621;-63
2022/04/01 05:59:33;;;;;;;4.23;2.67;;;;;;;18.78;53.34;98553.59;5016231;28;20415;-63
2022/04/01 06:02:24;;;;;;;3.00;2.00;;;;;;;18.78;53.46;98553.59;5034262;28;21010;-63
2022/04/01 06:05:08;;;;;;;3.70;2.70;;;;;;;18.78;53.29;98556.47;5034255;28;20403;-63
2022/04/01 06:07:44;;;;;;;3.33;2.53;;;;;;;18.76;53.30;98564.63;5034452;28;20408;-63
2022/04/01 06:10:37;;;;;;;3.60;2.50;;;;;;;18.76;53.36;98566.69;5033745;28;20983;-63
2022/04/01 06:13:38;;;;;;;3.57;2.40;;;;;;;18.77;53.39;98563.38;5034291;28;20529;-62
2022/04/01 06:16:31;;;;;;;2.73;2.20;;;;;;;18.78;53.26;98569.94;5033774;28;20391;-63
2022/04/01 06:19:08;;;;;;;3.00;2.20;;;;;;;18.76;53.38;98561.78;5014370;28;21018;-62
2022/04/01 06:21:38;;;;;;;2.80;2.10;;;;;;;18.74;53.26;98569.97;5013914;28;21046;-62
2022/04/01 06:24:11;;;;;;;3.50;2.27;;;;;;;18.76;53.30;98570.34;4996544;28;20839;-62
2022/04/01 06:26:45;;;;;;;3.60;2.50;;;;;;;18.77;53.38;98580.53;5025336;28;20429;-62
2022/04/01 06:29:35;;;;;;;3.50;2.63;;;;;;;18.78;53.07;98582.19;5033641;28;20567;-62
2022/04/01 06:32:05;;;;;;;3.87;2.30;;;;;;;18.75;53.16;98577.31;5031871;28;20407;-62
2022/04/01 06:34:36;;;;;;;2.80;2.20;;;;;;;18.76;53.29;98592.44;5033457;28;20400;-62
2022/04/01 06:37:03;;;;;;;3.57;2.60;;;;;;;18.76;53.22;98596.06;5033447;28;20490;-62
2022/04/01 06:39:50;;;;;;;3.20;2.40;;;;;;;18.74;53.53;98598.56;5033565;28;20431;-62
2022/04/01 06:42:19;;;;;;;3.97;2.20;;;;;;;18.74;53.75;98598.56;5033483;28;20952;-62
2022/04/01 06:44:46;;;;;;;3.07;2.00;;;;;;;18.74;53.70;98603.44;5032403;28;20407;-62
2022/04/01 06:47:11;;;;;;;3.20;2.20;;;;;;;18.77;53.19;98606.28;5033319;28;20515;-62
2022/04/01 06:49:37;;;;;;;2.93;2.33;;;;;;;18.73;53.44;98602.66;5032641;28;20416;-62
2022/04/01 06:52:03;;;;;;;3.93;2.20;;;;;;;18.75;53.39;98596.50;5014492;28;20207;-62
2022/04/01 06:54:28;;;;;;;3.70;2.27;;;;;;;18.77;53.25;98614.84;5033383;28;20522;-62
2022/04/01 06:56:54;;;;;;;4.40;2.70;;;;;;;18.75;53.31;98608.75;5033091;28;20164;-62
2022/04/01 06:59:20;;;;;;;3.57;2.90;;;;;;;18.77;53.27;98608.34;5015533;28;20165;-62
2022/04/01 07:01:46;;;;;;;2.73;1.90;;;;;;;18.78;53.20;98612.81;5032545;28;20447;-62
2022/04/01 07:04:11;;;;;;;2.60;1.83;;;;;;;18.75;53.21;98607.94;5033691;28;20180;-62
2022/04/01 07:06:37;;;;;;;3.80;2.43;;;;;;;18.75;53.36;98608.75;5032586;28;20184;-62
2022/04/01 07:09:02;;;;;;;2.80;2.13;;;;;;;18.73;53.38;98619.81;5033144;28;20160;-62
2022/04/01 07:11:27;;;;;;;2.90;2.17;;;;;;;18.75;53.48;98627.94;5013900;28;20168;-62
2022/04/01 07:13:54;;;;;;;2.70;2.00;;;;;;;18.75;53.37;98616.50;5033162;28;20169;-62
2022/04/01 07:16:19;;;;;;;3.53;2.33;;;;;;;18.75;53.09;98625.91;5032677;28;20176;-62
2022/04/01 07:18:45;;;;;;;3.43;2.30;;;;;;;18.77;53.31;98623.41;5032883;28;20403;-62
2022/04/01 07:21:11;;;;;;;3.00;2.03;;;;;;;18.77;53.07;98622.63;5032123;28;20192;-62
2022/04/01 07:23:37;;;;;;;3.33;2.27;;;;;;;18.72;53.44;98621.03;5015107;28;20245;-62
2022/04/01 07:26:02;;;;;;;3.60;2.50;;;;;;;18.75;53.25;98625.91;5032513;28;20173;-62
2022/04/01 07:28:28;;;;;;;3.40;2.20;;;;;;;18.77;53.16;98629.16;5032674;28;20492;-62
2022/04/01 07:30:55;;;;;;;3.27;2.37;;;;;;;18.75;53.11;98627.94;5032091;28;20180;-62
2022/04/01 07:33:20;;;;;;;3.73;2.13;;;;;;;18.75;53.17;98648.78;5032730;28;20662;-62
2022/04/01 07:35:47;;;;;;;2.93;2.07;;;;;;;18.75;53.22;98645.91;5032106;28;20415;-62
2022/04/01 07:38:13;;;;;;;2.67;1.93;;;;;;;18.76;53.20;98644.69;5032770;28;20196;-62
2022/04/01 07:40:39;;;;;;;3.00;2.27;;;;;;;18.75;53.27;98637.34;5032009;28;20510;-62
2022/04/01 07:43:05;;;;;;;3.00;2.07;;;;;;;18.78;53.01;98645.09;5032512;28;21009;-62
2022/04/01 07:45:33;;;;;;;2.97;2.07;;;;;;;18.73;53.21;98645.53;5032127;28;20185;-62
2022/04/01 07:47:58;;;;;;;2.70;2.10;;;;;;;18.77;53.00;98643.44;5032141;28;20258;-62
2022/04/01 07:50:24;;;;;;;3.47;2.23;;;;;;;18.74;53.12;98650.03;5032374;28;20447;-62
2022/04/01 07:52:49;;;;;;;2.60;1.90;;;;;;;18.75;53.05;98654.50;5032175;28;20169;-62
2022/04/01 07:55:16;;;;;;;2.73;1.93;;;;;;;18.73;53.57;98659.00;5030898;28;20280;-62
2022/04/01 07:57:42;;;;;;;3.53;2.60;;;;;;;18.74;53.19;98660.63;5032443;28;20632;-62
2022/04/01 08:00:08;;;;;;;3.33;1.90;;;;;;;18.73;53.26;98662.69;5032119;28;20419;-62
2022/04/01 08:02:34;;;;;;;2.70;1.93;;;;;;;18.74;53.28;98657.75;5014479;28;20518;-62
2022/04/01 08:05:00;;;;;;;2.50;1.77;;;;;;;18.74;53.06;98658.59;5030677;28;20419;-62
2022/04/01 08:07:26;;;;;;;3.50;1.77;;;;;;;18.74;53.22;98666.34;5032116;28;20223;-62
2022/04/01 08:09:52;;;;;;;3.07;2.13;;;;;;;18.71;53.09;98662.28;5031971;28;20643;-62
2022/04/01 08:12:18;;;;;;;2.83;1.80;;;;;;;18.71;53.35;98670.84;5031999;28;20411;-62
2022/04/01 08:14:44;;;;;;;2.30;1.80;;;;;;;18.70;53.24;98669.25;5031957;28;20426;-62
2022/04/01 08:17:12;;;;;;;2.80;2.00;;;;;;;18.71;53.36;98672.94;5031811;28;20415;-62
2022/04/01 08:19:39;;;;;;;2.63;1.90;;;;;;;18.71;53.28;98676.56;5031376;28;20215;-62
2022/04/01 08:22:04;;;;;;;4.00;1.77;;;;;;;18.69;53.09;98679.06;5031481;28;20491;-62
2022/04/01 08:24:30;;;;;;;2.90;2.07;;;;;;;18.71;53.23;98678.66;5031821;28;20442;-62
2022/04/01 08:26:57;;;;;;;2.97;1.80;;;;;;;18.71;53.05;98676.56;5032124;28;20593;-62
2022/04/01 08:29:22;;;;;;;2.60;2.00;;;;;;;18.70;53.36;98683.53;5031766;28;20179;-62
2022/04/01 08:31:48;;;;;;;2.43;1.53;;;;;;;18.69;53.40;98683.94;5031430;28;20404;-62
2022/04/01 08:34:14;;;;;;;3.80;2.30;;;;;;;18.70;53.02;98689.25;5030732;28;20531;-62
2022/04/01 08:36:39;;;;;;;2.77;1.97;;;;;;;18.69;52.99;98696.22;5030699;28;20192;-62
2022/04/01 08:39:04;;;;;;;2.57;1.90;;;;;;;18.69;53.11;98693.34;5031334;28;20168;-62
2022/04/01 08:41:30;;;;;;;2.53;1.70;;;;;;;18.65;53.20;98698.28;5031438;28;20192;-62
2022/04/01 08:43:55;;;;;;;3.23;1.90;;;;;;;18.70;53.10;98697.00;5031314;28;20195;-62
2022/04/01 08:46:21;;;;;;;2.83;1.83;;;;;;;18.67;53.45;98704.38;5031377;28;20184;-62
2022/04/01 08:48:47;;;;;;;2.67;1.80;;;;;;;18.66;53.06;98702.75;5031764;28;20184;-62
2022/04/01 08:51:13;;;;;;;2.63;1.97;;;;;;;18.64;53.22;98707.25;5031709;28;20413;-62
2022/04/01 08:53:40;;;;;;;2.87;2.00;;;;;;;18.66;53.14;98705.63;5013505;28;20184;-62
2022/04/01 08:56:06;;;;;;;3.37;2.03;;;;;;;18.66;53.22;98714.19;5031198;28;20779;-62
2022/04/01 08:58:33;;;;;;;2.50;1.80;;;;;;;18.64;53.26;98712.97;5031756;28;20498;-62
2022/04/01 09:00:59;;;;;;;2.87;1.67;;;;;;;18.65;53.10;98717.47;5031172;28;20184;-62
2022/04/01 09:03:27;;;;;;;2.77;1.93;;;;;;;18.66;53.42;98719.91;4997583;28;20403;-62
2022/04/01 09:05:54;;;;;;;2.47;1.83;;;;;;;18.67;53.27;98717.88;5031453;28;20882;-62
2022/04/01 09:08:37;;;;;;;2.40;1.83;;;;;;;18.68;53.17;98722.34;5031441;28;20517;-62
2022/04/01 09:11:08;;;;;;;3.03;1.97;;;;;;;18.67;53.16;98720.72;5031398;28;20926;-62
2022/04/01 09:13:46;;;;;;;2.50;1.90;;;;;;;18.64;53.05;98725.25;5030264;28;20399;-62
2022/04/01 09:16:26;;;;;;;2.97;1.80;;;;;;;18.65;52.96;98729.72;5033665;28;20521;-62
2022/04/01 09:18:53;;;;;;;2.33;1.80;;;;;;;18.65;53.37;98729.72;5035615;28;20411;-63
2022/04/01 09:21:24;;;;;;;2.20;1.70;;;;;;;18.66;53.40;98736.25;5035011;28;20493;-62
2022/04/01 09:23:49;;;;;;;3.03;1.73;;;;;;;18.66;53.29;98730.53;5017598;28;20415;-62
2022/04/01 09:26:18;;;;;;;2.40;1.60;;;;;;;18.67;52.91;98732.97;5034938;28;20423;-62
2022/04/01 09:28:44;;;;;;;3.10;2.07;;;;;;;18.66;53.32;98737.06;5034871;28;20177;-62
2022/04/01 09:31:12;;;;;;;2.10;1.60;;;;;;;18.66;53.23;98742.78;5034899;28;20415;-62
2022/04/01 09:33:43;;;;;;;3.33;2.30;;;;;;;18.63;53.36;98737.09;5017136;28;20568;-62
2022/04/01 09:36:11;;;;;;;3.40;2.57;;;;;;;18.66;52.90;98737.06;5035047;28;20422;-62
2022/04/01 09:38:37;;;;;;;3.07;2.30;;;;;;;18.67;53.14;98746.47;5034040;28;20806;-62
2022/04/01 09:41:03;;;;;;;2.63;1.60;;;;;;;18.68;53.11;98748.91;5034742;28;20424;-62
2022/04/01 09:43:28;;;;;;;2.17;1.60;;;;;;;18.67;53.25;98744.38;5034603;28;20172;-62
2022/04/01 09:45:54;;;;;;;3.07;1.80;;;;;;;18.68;53.12;98750.94;5016826;28;20461;-62
2022/04/01 09:48:20;;;;;;;2.27;1.80;;;;;;;18.68;53.06;98748.06;5034520;28;20228;-62
2022/04/01 09:50:59;;;;;;;2.33;1.63;;;;;;;18.67;53.23;98744.38;5034451;28;20182;-62
2022/04/01 09:53:25;;;;;;;2.73;1.80;;;;;;;18.69;53.11;98753.38;5034529;28;20196;-62
2022/04/01 09:55:52;;;;;;;2.90;1.80;;;;;;;18.68;52.96;98745.22;5016925;28;20508;-62
2022/04/01 09:58:20;;;;;;;2.80;1.97;;;;;;;18.67;53.06;98752.19;5015639;28;20423;-62
2022/04/01 10:00:46;;;;;;;2.40;1.70;;;;;;;18.67;53.07;98750.09;5033705;28;20230;-62
2022/04/01 10:03:12;;;;;;;3.50;2.30;;;;;;;18.70;52.86;98759.88;5034287;28;20820;-62
2022/04/01 10:05:39;;;;;;;2.43;1.77;;;;;;;18.72;52.92;98754.59;5034484;28;20279;-62
2022/04/01 10:08:06;;;;;;;2.77;1.53;;;;;;;18.68;53.01;98754.63;5016721;28;20493;-62
2022/04/01 10:10:31;;;;;;;3.10;2.23;;;;;;;18.68;53.10;98763.19;5016638;28;20422;-62
2022/04/01 10:13:04;;;;;;;3.40;2.13;;;;;;;18.65;53.22;98760.34;5034185;28;20426;-62
2022/04/01 10:15:30;;;;;;;2.53;1.83;;;;;;;18.67;53.17;98761.53;5016466;28;20185;-62
2022/04/01 10:17:58;;;;;;;2.73;1.80;;;;;;;18.66;53.19;98767.69;5034011;28;20489;-62
2022/04/01 10:20:35;;;;;;;2.90;1.80;;;;;;;18.70;53.00;98763.56;5016115;28;20430;-62
2022/04/01 10:23:03;;;;;;;3.57;2.10;;;;;;;18.68;53.15;98768.91;5034022;28;20458;-62
2022/04/01 10:25:31;;;;;;;3.30;1.93;;;;;;;18.69;52.96;98764.00;5033914;28;20426;-62
2022/04/01 10:27:57;;;;;;;1.97;1.50;;;;;;;18.67;52.96;98769.31;4995554;28;20431;-62
2022/04/01 10:30:24;;;;;;;2.80;1.70;;;;;;;18.68;52.90;98768.91;5014111;28;20911;-62
2022/04/01 10:32:50;;;;;;;2.33;1.67;;;;;;;18.67;52.84;98769.31;5012717;28;20690;-62
2022/04/01 10:35:26;;;;;;;3.40;1.73;;;;;;;18.65;52.85;98764.03;5014155;28;20420;-62
2022/04/01 10:38:07;;;;;;;3.00;2.30;;;;;;;18.61;52.88;98773.88;5021826;28;20184;-62
2022/04/01 10:40:34;;;;;;;5.67;3.70;;;;;;;18.60;52.15;98777.94;5017189;28;20473;-62
2022/04/01 10:43:28;;;;;;;8.50;3.90;;;;;;;18.56;51.16;98782.88;5033479;28;20496;-62
2022/04/01 10:46:00;;;;;;;4.17;3.47;;;;;;;18.50;51.28;98779.63;5033353;28;20497;-62
2022/04/01 10:51:36;;;;;;;5.50;2.97;;;;;;;18.51;50.86;98786.19;4987863;28;20806;-62
2022/04/01 10:54:14;;;;;;;4.90;3.73;;;;;;;18.48;50.70;98781.28;5032652;28;20422;-63
2022/04/01 10:56:40;;;;;;;8.20;3.60;;;;;;;18.47;50.47;98785.38;5032620;28;20411;-62
2022/04/01 10:59:18;;;;;;;4.87;3.07;;;;;;;18.52;50.87;98788.59;5033094;28;20422;-62
2022/04/01 11:01:59;;;;;;;5.27;3.53;;;;;;;18.52;50.87;98788.59;5033144;28;20442;-62
2022/04/01 11:04:33;;;;;;;5.40;3.63;;;;;;;18.54;51.53;98789.00;5033121;28;20925;-62
2022/04/01 11:07:03;;;;;;;18.23;4.07;;;;;;;18.53;52.03;98786.56;5015229;28;20969;-62
2022/04/01 11:09:50;;;;;;;21.13;4.03;;;;;;;18.51;52.45;98798.41;5015710;28;20442;-62
2022/04/01 11:12:16;;;;;;;16.53;4.20;;;;;;;18.52;52.98;98794.31;5032972;28;20488;-62
2022/04/01 11:15:12;;;;;;;27.00;5.13;;;;;;;18.56;52.77;98792.25;5033085;28;20419;-62
2022/04/01 11:17:37;;;;;;;26.90;5.60;;;;;;;18.60;53.20;98801.63;5032059;28;20216;-62
2022/04/01 11:20:14;;;;;;;46.60;6.13;;;;;;;18.59;52.49;98797.13;5032750;28;20503;-62
2022/04/01 11:22:59;;;;;;;34.80;5.83;;;;;;;18.60;52.61;98793.03;5032809;28;20258;-62
2022/04/01 11:25:25;;;;;;;37.40;7.20;;;;;;;18.60;52.78;98801.63;5032666;28;20423;-62
2022/04/01 11:28:06;;;;;;;41.00;6.70;;;;;;;18.64;52.82;98795.88;5032438;28;20425;-62
2022/04/01 11:30:36;;;;;;;36.20;5.90;;;;;;;18.70;52.16;98795.03;5014797;28;20628;-62
2022/04/01 11:33:06;;;;;;;52.37;7.83;;;;;;;18.74;52.35;98798.69;5032485;28;20472;-62
2022/04/01 11:35:39;;;;;;;41.53;6.20;;;;;;;18.68;52.29;98802.38;5032363;28;20446;-62
2022/04/01 11:38:08;;;;;;;33.57;7.00;;;;;;;18.67;52.38;98804.41;5032369;28;20771;-62
2022/04/01 11:40:36;;;;;;;51.23;6.73;;;;;;;18.69;52.55;98804.84;5015119;28;20427;-62
2022/04/01 11:43:05;;;;;;;39.80;5.53;;;;;;;18.68;52.68;98806.06;5032479;28;20507;-62
2022/04/01 11:45:51;;;;;;;33.27;5.23;;;;;;;18.63;52.82;98811.41;5031929;28;20443;-62
2022/04/01 11:48:33;;;;;;;43.90;6.97;;;;;;;18.66;52.38;98811.38;5032348;28;20471;-62
2022/04/01 11:51:00;;;;;;;29.00;5.30;;;;;;;18.62;52.72;98809.78;5032606;28;21043;-62